Pagrindinis puslapis
METAR-TAF:

METAR-TAF

Oro uostai :

Seulas Inčonas, Pietų Korėja

platuma: 37-28N, ilguma: 126-27E, Aukštis: 7 m

Dabartinis oras

Ataskaita buvo paskelbta 21 minutes, ne 16:00 UTC
Vėjas 5 kt iš Šiaurės/Šiaurės Vakarų
Temperatūra -3°C
Drėgmė 80%
Slėgis 1030 hPa
Matomumas: 6000 m

METAR: RKSI 071600Z 34005KT 6000 NSC M03/M06 Q1030 NOSIG

Laikas: 01:21 (16:21 UTC)

Prognozė

Ataskaita buvo paskelbta 5 valandos ir 21 minutes, ne 11:00 UTC
Prognozė galioja nuo 07 metu 12 UTC su 08 metu 18 UTC
Vėjas 7 kt iš Šiaurės Vakarų
Matomumas: 6000 m
Mažai debesys ne aukštis 3000 ft
Tapsmas
nuo 07 metu 16 UTC su 07 metu 17 UTC
Vėjas 6 kt iš Rytų/Šiaurės Rytų
Matomumas 10 km arba daugiau
nėra debesų žemiau 1500 m ir nėra kamuolinių lietaus debesų
Tapsmas
nuo 08 metu 11 UTC su 08 metu 12 UTC
Vėjas 10 kt iš Pietryčių
Matomumas 10 km arba daugiau
Mažai debesys ne aukštis 3000 ft
Su prošvaistėmis ne aukštis 12000 ft

TAF: RKSI 071100Z 0712/0818 32007KT 6000 FEW030 TNM04/0721Z TX04/0806Z BECMG 0716/0717 07006KT CAVOK BECMG 0811/0812 13010KT 9999 FEW030 BKN120

Orai ataskaitas ir orų prognozės (METAR, TAF).

turimą stotys yra geltonos ir raudonos taškus žemėlapyje.

Perkelti pele per norėdami pamatyti stoties vardą.

Tada spustelėkite, norėdami matyti oro stebėjimo ir prognozės.

Norėdami pakeisti žemėlapį: spustelėkite ant žalios mygtukų su juodo kryžiaus žemyn,; žalią mygtuką su brūkšneliu, jei norite nutolinti; arba žalių rodyklių gretimoms žemėlapius.


METAR-TAF: